Time;durP1;ratioP1;P1;durP2;ratioP2;P2;SDS_P1;SDS_P2;PMS_P1;PMS_P2;Temp;Humidity;BMP_temperature;BMP_pressure;BME280_temperature;BME280_humidity;BME280_pressure;Samples;Min_cycle;Max_cycle;Signal;HPM_P1;HPM_P2
2024/03/26 00:01:20;;;;;;;;;;;;;;;1.70;45.33;93778.06;4939753;28;19926;-64
2024/03/26 00:03:46;;;;;;;;;;;;;;;1.69;45.07;93781.63;4941315;28;20314;-63
2024/03/26 00:06:11;;;;;;;;;;;;;;;1.71;44.92;93769.19;4941167;28;19966;-64
2024/03/26 00:08:36;;;;;;;;;;;;;;;1.59;43.63;93773.94;4941859;28;19933;-63
2024/03/26 00:11:01;;;;;;;;;;;;;;;1.69;46.62;93771.16;4941065;28;19930;-63
2024/03/26 00:13:26;;;;;;;;;;;;;;;1.73;46.86;93772.44;4941023;29;19922;-64
2024/03/26 00:15:52;;;;;;;;;;;;;;;1.62;44.60;93771.84;4940516;28;20416;-63
2024/03/26 00:18:17;;;;;;;;;;;;;;;1.72;43.30;93770.81;4941058;28;19994;-65
2024/03/26 00:20:43;;;;;;;;;;;;;;;1.94;45.84;93768.47;4939039;29;19926;-63
2024/03/26 00:23:08;;;;;;;;;;;;;;;1.96;46.45;93776.97;4941076;28;19923;-62
2024/03/26 00:25:33;;;;;;;;;;;;;;;1.75;44.62;93771.31;4940685;28;20284;-65
2024/03/26 00:27:59;;;;;;;;;;;;;;;1.70;44.62;93762.31;4940815;28;19922;-63
2024/03/26 00:30:24;;;;;;;;;;;;;;;1.88;48.14;93769.97;4940825;28;20058;-62
2024/03/26 00:32:49;;;;;;;;;;;;;;;1.88;45.92;93759.47;4940326;28;19960;-64
2024/03/26 00:35:14;;;;;;;;;;;;;;;2.07;46.75;93758.22;4940479;28;19926;-64
2024/03/26 00:37:40;;;;;;;;;;;;;;;1.75;43.24;93754.75;4941006;28;20364;-63
2024/03/26 00:40:05;;;;;;;;;;;;;;;1.67;46.48;93762.63;4940980;28;19922;-65
2024/03/26 00:42:30;;;;;;;;;;;;;;;1.80;46.74;93759.50;4940186;28;20011;-64
2024/03/26 00:44:55;;;;;;;;;;;;;;;1.79;44.12;93768.31;4940534;29;19926;-64
2024/03/26 00:47:21;;;;;;;;;;;;;;;1.77;43.18;93752.75;4940067;28;19962;-64
2024/03/26 00:49:46;;;;;;;;;;;;;;;1.91;47.25;93747.81;4940565;28;19941;-62
2024/03/26 00:52:11;;;;;;;;;;;;;;;1.74;44.77;93742.63;4940775;28;20439;-64
2024/03/26 00:54:36;;;;;;;;;;;;;;;1.67;44.61;93741.66;4940808;28;19929;-64
2024/03/26 00:57:02;;;;;;;;;;;;;;;1.70;46.24;93739.50;4940924;29;19977;-63
2024/03/26 00:59:27;;;;;;;;;;;;;;;1.59;47.15;93731.97;4940914;28;19985;-63
2024/03/26 01:01:52;;;;;;;;;;;;;;;1.58;45.90;93723.31;4940748;28;20025;-63
2024/03/26 01:04:17;;;;;;;;;;;;;;;1.66;44.27;93726.91;4941148;28;20035;-64
2024/03/26 01:06:43;;;;;;;;;;;;;;;1.57;46.68;93729.53;4940210;28;20308;-64
2024/03/26 01:09:08;;;;;;;;;;;;;;;1.67;45.78;93726.72;4940968;28;20356;-65
2024/03/26 01:11:33;;;;;;;;;;;;;;;1.45;45.56;93712.47;4940611;28;20668;-64
2024/03/26 01:13:58;;;;;;;;;;;;;;;1.56;45.84;93709.53;4940588;28;19980;-64
2024/03/26 01:16:24;;;;;;;;;;;;;;;1.37;45.48;93702.84;4940525;29;19991;-65
2024/03/26 01:18:49;;;;;;;;;;;;;;;1.57;48.03;93705.91;4940766;28;19977;-64
2024/03/26 01:21:14;;;;;;;;;;;;;;;1.45;47.89;93702.00;4940103;28;19969;-63
2024/03/26 01:23:39;;;;;;;;;;;;;;;1.53;49.34;93704.63;4940646;28;19930;-63
2024/03/26 01:26:04;;;;;;;;;;;;;;;1.22;44.51;93702.69;4937961;28;19933;-63
2024/03/26 01:28:30;;;;;;;;;;;;;;;1.50;46.37;93704.94;4939859;28;19926;-64
2024/03/26 01:30:55;;;;;;;;;;;;;;;1.44;44.88;93700.38;4939837;28;20470;-63
2024/03/26 01:33:20;;;;;;;;;;;;;;;1.58;45.81;93706.75;4940051;29;19927;-64
2024/03/26 01:35:52;;;;;;;;;;;;;;;1.34;45.06;93698.75;4938347;28;19934;-65
2024/03/26 01:38:17;;;;;;;;;;;;;;;1.34;47.73;93696.13;4939535;28;19926;-64
2024/03/26 01:40:42;;;;;;;;;;;;;;;1.55;48.87;93697.41;4939924;28;19980;-64
2024/03/26 01:43:08;;;;;;;;;;;;;;;1.45;47.68;93691.50;4939151;28;19972;-64
2024/03/26 01:45:33;;;;;;;;;;;;;;;1.51;47.29;93688.22;4939689;28;19934;-65
2024/03/26 01:47:58;;;;;;;;;;;;;;;1.61;45.32;93685.44;4939698;28;19926;-62
2024/03/26 01:50:23;;;;;;;;;;;;;;;1.71;46.15;93683.41;4954701;28;19933;-65
2024/03/26 01:52:49;;;;;;;;;;;;;;;1.67;44.76;93686.56;4938733;29;20494;-64
2024/03/26 01:55:14;;;;;;;;;;;;;;;1.76;46.09;93677.66;4939628;28;20276;-62
2024/03/26 01:57:39;;;;;;;;;;;;;;;1.60;45.25;93673.31;4938984;28;19933;-62
2024/03/26 02:00:05;;;;;;;;;;;;;;;1.72;44.70;93666.69;4939605;28;20573;-64
2024/03/26 02:02:30;;;;;;;;;;;;;;;1.79;43.95;93658.13;4937754;28;19934;-64
2024/03/26 02:04:55;;;;;;;;;;;;;;;1.71;44.75;93654.53;4940082;29;20676;-62
2024/03/26 02:07:21;;;;;;;;;;;;;;;1.75;46.21;93650.63;4939445;28;20510;-64
2024/03/26 02:09:47;;;;;;;;;;;;;;;1.92;48.34;93649.69;4939832;28;19926;-62
2024/03/26 02:12:12;;;;;;;;;;;;;;;1.91;46.61;93635.78;4939605;29;19927;-62
2024/03/26 02:14:37;;;;;;;;;;;;;;;1.67;45.87;93634.88;4939201;28;19933;-63
2024/03/26 02:17:04;;;;;;;;;;;;;;;1.78;45.22;93632.88;4938918;28;19930;-65
2024/03/26 02:19:29;;;;;;;;;;;;;;;1.78;46.68;93633.69;4938928;28;19923;-62
2024/03/26 02:21:54;;;;;;;;;;;;;;;1.86;43.47;93628.41;4955981;28;20299;-62
2024/03/26 02:24:19;;;;;;;;;;;;;;;1.71;44.69;93630.13;4943730;28;19968;-65
2024/03/26 02:26:45;;;;;;;;;;;;;;;1.70;45.51;93631.13;4942972;28;19926;-63
2024/03/26 02:29:10;;;;;;;;;;;;;;;1.73;45.53;93633.38;4943358;28;19933;-63
2024/03/26 02:31:35;;;;;;;;;;;;;;;1.86;44.31;93628.41;4941536;28;19937;-64
2024/03/26 02:34:00;;;;;;;;;;;;;;;1.93;49.73;93640.81;4942017;28;19926;-62
2024/03/26 02:36:26;;;;;;;;;;;;;;;2.09;49.51;93625.00;4943061;29;19941;-64
2024/03/26 02:38:51;;;;;;;;;;;;;;;1.88;47.41;93623.78;4943649;28;19941;-64
2024/03/26 02:41:16;;;;;;;;;;;;;;;2.04;46.47;93619.44;4943126;29;19962;-64
2024/03/26 02:43:41;;;;;;;;;;;;;;;2.14;45.21;93609.53;4940537;28;20612;-65
2024/03/26 02:46:07;;;;;;;;;;;;;;;2.37;47.28;93615.75;4941007;28;19930;-65
2024/03/26 02:48:32;;;;;;;;;;;;;;;2.38;48.60;93606.88;4946889;28;19949;-65
2024/03/26 02:50:57;;;;;;;;;;;;;;;2.31;44.47;93609.41;4940997;28;19933;-66
2024/03/26 02:53:23;;;;;;;;;;;;;;;2.43;44.91;93615.06;4943336;28;19964;-64
2024/03/26 02:55:51;;;;;;;;;;;;;;;2.40;43.87;93618.03;4942548;28;19970;-64
2024/03/26 02:58:16;;;;;;;;;;;;;;;2.24;42.26;93605.84;4942971;28;19932;-65
2024/03/26 03:00:42;;;;;;;;;;;;;;;2.40;45.83;93610.16;4939594;28;20139;-64
2024/03/26 03:03:07;;;;;;;;;;;;;;;2.33;43.99;93594.31;4942917;28;19931;-66
2024/03/26 03:05:32;;;;;;;;;;;;;;;2.26;46.45;93599.44;4944239;28;19961;-67
2024/03/26 03:07:57;;;;;;;;;;;;;;;2.33;44.86;93599.56;4942362;28;19931;-64
2024/03/26 03:10:23;;;;;;;;;;;;;;;2.41;44.64;93595.22;4943162;28;20603;-64
2024/03/26 03:12:48;;;;;;;;;;;;;;;2.37;46.32;93594.75;4942468;28;19947;-66
2024/03/26 03:15:13;;;;;;;;;;;;;;;2.42;45.50;93599.47;4942335;28;20017;-64
2024/03/26 03:17:38;;;;;;;;;;;;;;;2.50;46.85;93594.97;4942470;28;19946;-66
2024/03/26 03:20:05;;;;;;;;;;;;;;;2.43;47.76;93593.22;4943067;28;19937;-64
2024/03/26 03:22:30;;;;;;;;;;;;;;;2.52;47.49;93594.81;4942132;28;19926;-66
2024/03/26 03:24:55;;;;;;;;;;;;;;;2.51;44.63;93588.72;4942392;29;20115;-64
2024/03/26 03:27:20;;;;;;;;;;;;;;;2.69;46.54;93592.03;4941994;28;20602;-65
2024/03/26 03:29:46;;;;;;;;;;;;;;;2.63;48.78;93591.72;4935515;28;19931;-65
2024/03/26 03:32:11;;;;;;;;;;;;;;;2.63;45.12;93593.56;4936142;28;19926;-64
2024/03/26 03:34:37;;;;;;;;;;;;;;;2.57;45.79;93583.75;4941262;28;19935;-64
2024/03/26 03:37:02;;;;;;;;;;;;;;;2.52;45.02;93571.16;4942988;29;19938;-66
2024/03/26 03:39:27;;;;;;;;;;;;;;;2.34;45.22;93568.84;4942391;28;20016;-66
2024/03/26 03:41:52;;;;;;;;;;;;;;;2.29;47.13;93560.69;4941859;28;19927;-65
2024/03/26 03:44:18;;;;;;;;;;;;;;;2.35;47.22;93558.16;4941009;28;19930;-65
2024/03/26 03:46:43;;;;;;;;;;;;;;;2.42;47.47;93560.91;4941453;28;20465;-65
2024/03/26 03:49:08;;;;;;;;;;;;;;;2.37;46.38;93558.81;4941911;28;20398;-65
2024/03/26 03:51:33;;;;;;;;;;;;;;;2.43;43.84;93562.53;4942340;28;20073;-65
2024/03/26 03:53:59;;;;;;;;;;;;;;;2.49;47.74;93561.00;4941847;28;19933;-65
2024/03/26 03:56:24;;;;;;;;;;;;;;;2.46;46.84;93561.34;4941880;29;19963;-65
2024/03/26 03:58:49;;;;;;;;;;;;;;;2.32;46.08;93562.97;4941643;28;21260;-65
2024/03/26 04:01:14;;;;;;;;;;;;;;;2.44;44.42;93558.91;4938330;29;20684;-65
2024/03/26 04:03:39;;;;;;;;;;;;;;;2.31;46.47;93553.44;4941540;28;19934;-65
2024/03/26 04:06:05;;;;;;;;;;;;;;;2.09;44.14;93551.50;4941726;28;19926;-64
2024/03/26 04:08:30;;;;;;;;;;;;;;;2.07;47.00;93553.47;4941742;29;20033;-65
2024/03/26 04:10:57;;;;;;;;;;;;;;;2.06;45.78;93551.84;4941676;28;19933;-66
2024/03/26 04:13:22;;;;;;;;;;;;;;;1.98;44.42;93550.06;4940948;28;19973;-66
2024/03/26 04:15:47;;;;;;;;;;;;;;;1.72;44.57;93550.41;4940627;29;19934;-65
2024/03/26 04:18:12;;;;;;;;;;;;;;;1.79;47.69;93550.53;4943101;28;19926;-65
2024/03/26 04:20:38;;;;;;;;;;;;;;;1.81;48.07;93551.19;4941246;29;19931;-65
2024/03/26 04:23:03;;;;;;;;;;;;;;;1.95;50.62;93542.56;4940949;28;19926;-65
2024/03/26 04:25:28;;;;;;;;;;;;;;;1.71;47.95;93546.97;4940626;28;20072;-65
2024/03/26 04:27:53;;;;;;;;;;;;;;;1.78;50.95;93539.25;4940666;29;19988;-65
2024/03/26 04:30:19;;;;;;;;;;;;;;;1.83;49.40;93539.53;4939984;28;19922;-66
2024/03/26 04:32:44;;;;;;;;;;;;;;;1.84;49.80;93546.41;4941678;28;19945;-66
2024/03/26 04:35:13;;;;;;;;;;;;;;;1.60;45.56;93537.69;4940654;28;19958;-65
2024/03/26 04:37:38;;;;;;;;;;;;;;;1.69;48.31;93535.03;4939667;28;20316;-65
2024/03/26 04:40:05;;;;;;;;;;;;;;;1.81;49.76;93538.88;4941954;29;20195;-65
2024/03/26 04:42:30;;;;;;;;;;;;;;;1.62;47.93;93538.34;4939873;28;19933;-65
2024/03/26 04:44:56;;;;;;;;;;;;;;;1.88;49.60;93524.06;4941798;29;19923;-66
2024/03/26 04:47:21;;;;;;;;;;;;;;;1.69;48.43;93532.41;4940286;28;19942;-65
2024/03/26 04:49:46;;;;;;;;;;;;;;;1.56;47.61;93525.91;4941187;28;19969;-64
2024/03/26 04:52:11;;;;;;;;;;;;;;;1.74;50.42;93527.47;4940143;28;20004;-65
2024/03/26 04:54:37;;;;;;;;;;;;;;;1.73;49.38;93526.63;4940744;28;20542;-65
2024/03/26 04:57:02;;;;;;;;;;;;;;;1.75;46.30;93516.78;4940319;29;20312;-65
2024/03/26 04:59:27;;;;;;;;;;;;;;;1.58;47.72;93513.47;4950886;28;19931;-66
2024/03/26 05:01:52;;;;;;;;;;;;;;;1.66;48.22;93502.09;4934300;28;20025;-66
2024/03/26 05:04:18;;;;;;;;;;;;;;;1.56;47.06;93511.97;4940124;28;20131;-65
2024/03/26 05:06:43;;;;;;;;;;;;;;;1.66;46.84;93511.78;4939025;28;19926;-66
2024/03/26 05:09:09;;;;;;;;;;;;;;;1.64;49.31;93505.88;4940804;29;20315;-64
2024/03/26 05:11:35;;;;;;;;;;;;;;;1.59;47.28;93511.63;4940185;28;20519;-65
2024/03/26 05:14:00;;;;;;;;;;;;;;;1.57;51.11;93509.19;4940545;28;19935;-66
2024/03/26 05:16:26;;;;;;;;;;;;;;;1.86;48.77;93493.75;4940698;29;19957;-64
2024/03/26 05:18:51;;;;;;;;;;;;;;;1.88;49.25;93495.19;4940767;28;19969;-65
2024/03/26 05:21:16;;;;;;;;;;;;;;;1.88;46.11;93507.50;4940564;28;20023;-65
2024/03/26 05:23:42;;;;;;;;;;;;;;;1.96;48.03;93502.19;4940244;28;19957;-66
2024/03/26 05:26:07;;;;;;;;;;;;;;;1.80;48.92;93510.22;4940192;28;19988;-66
2024/03/26 05:28:32;;;;;;;;;;;;;;;1.92;46.89;93502.72;4940448;28;19977;-64
2024/03/26 05:31:00;;;;;;;;;;;;;;;1.88;47.84;93495.19;4938736;28;19970;-66
2024/03/26 05:33:26;;;;;;;;;;;;;;;1.68;46.77;93491.41;4938888;29;20505;-65
2024/03/26 05:35:51;;;;;;;;;;;;;;;2.03;45.63;93480.47;4940455;28;19935;-66
2024/03/26 05:38:16;;;;;;;;;;;;;;;2.25;47.34;93491.97;4937341;28;19953;-65
2024/03/26 05:40:42;;;;;;;;;;;;;;;2.10;48.33;93497.16;4939446;28;19926;-65
2024/03/26 05:43:07;;;;;;;;;;;;;;;2.23;48.07;93499.19;4934447;28;19930;-65
2024/03/26 05:45:33;;;;;;;;;;;;;;;2.30;46.05;93497.47;4939333;28;19934;-65
2024/03/26 05:47:58;;;;;;;;;;;;;;;2.36;48.20;93502.03;4954102;28;19957;-66
2024/03/26 05:50:23;;;;;;;;;;;;;;;2.59;46.23;93492.44;4939637;28;20430;-65
2024/03/26 05:52:48;;;;;;;;;;;;;;;2.57;45.01;93503.13;4940486;28;20005;-64
2024/03/26 05:55:14;;;;;;;;;;;;;;;2.58;46.94;93502.13;4939632;28;19931;-65
2024/03/26 05:57:39;;;;;;;;;;;;;;;2.87;47.84;93504.94;4938874;28;19945;-65
2024/03/26 06:00:04;;;;;;;;;;;;;;;2.87;46.11;93505.78;4936034;28;19930;-65
2024/03/26 06:02:30;;;;;;;;;;;;;;;3.09;46.42;93505.84;4938974;28;19934;-65
2024/03/26 06:04:55;;;;;;;;;;;;;;;3.06;48.18;93511.44;4937762;28;19930;-64
2024/03/26 06:07:20;;;;;;;;;;;;;;;3.14;45.89;93516.59;4939634;28;19926;-65
2024/03/26 06:09:45;;;;;;;;;;;;;;;3.12;48.00;93513.38;4938999;28;20547;-65
2024/03/26 06:12:11;;;;;;;;;;;;;;;3.40;48.50;93515.31;4939426;28;20468;-67
2024/03/26 06:14:36;;;;;;;;;;;;;;;3.39;45.56;93516.31;4938980;28;19926;-66
2024/03/26 06:17:01;;;;;;;;;;;;;;;3.48;47.40;93517.06;4940066;28;20147;-65
2024/03/26 06:19:27;;;;;;;;;;;;;;;3.74;47.98;93510.44;4937398;28;20377;-66
2024/03/26 06:21:52;;;;;;;;;;;;;;;3.50;44.06;93511.63;4939255;28;19937;-66
2024/03/26 06:24:17;;;;;;;;;;;;;;;3.71;46.73;93510.78;4939511;29;20010;-66
2024/03/26 06:26:43;;;;;;;;;;;;;;;3.78;46.69;93505.63;4939412;28;20272;-65
2024/03/26 06:29:08;;;;;;;;;;;;;;;3.91;47.07;93508.38;4938728;29;19932;-65
2024/03/26 06:31:33;;;;;;;;;;;;;;;3.67;42.03;93494.56;4937027;28;19980;-65
2024/03/26 06:33:58;;;;;;;;;;;;;;;3.55;41.01;93494.25;4937355;28;19997;-66
2024/03/26 06:36:23;;;;;;;;;;;;;;;3.78;43.29;93495.88;4939303;28;20005;-66
2024/03/26 06:38:49;;;;;;;;;;;;;;;3.78;42.25;93484.56;4938794;28;19932;-65
2024/03/26 06:41:14;;;;;;;;;;;;;;;3.80;42.39;93487.81;4935935;28;20563;-64
2024/03/26 06:43:39;;;;;;;;;;;;;;;3.92;43.99;93488.94;4937773;28;19930;-66
2024/03/26 06:46:05;;;;;;;;;;;;;;;4.06;44.36;93484.59;4939717;28;20025;-65
2024/03/26 06:48:30;;;;;;;;;;;;;;;4.14;42.06;93488.09;4938865;29;19930;-65
2024/03/26 06:50:55;;;;;;;;;;;;;;;4.15;43.98;93490.53;4939637;28;19927;-66
2024/03/26 06:53:20;;;;;;;;;;;;;;;4.23;43.43;93494.88;4939190;28;19927;-65
2024/03/26 06:55:46;;;;;;;;;;;;;;;4.23;42.32;93478.25;4939490;28;20387;-66
2024/03/26 06:58:11;;;;;;;;;;;;;;;4.30;42.92;93482.56;4937458;28;19961;-65
2024/03/26 07:00:36;;;;;;;;;;;;;;;4.33;42.73;93481.38;4934820;29;20182;-66
2024/03/26 07:03:01;;;;;;;;;;;;;;;4.31;41.32;93472.84;4936520;28;20033;-65
2024/03/26 07:05:27;;;;;;;;;;;;;;;4.38;42.24;93480.78;4937843;29;19994;-67
2024/03/26 07:07:52;;;;;;;;;;;;;;;4.39;41.85;93477.97;4954324;28;19997;-66
2024/03/26 07:10:17;;;;;;;;;;;;;;;4.35;42.32;93473.28;4942226;28;20334;-65
2024/03/26 07:12:42;;;;;;;;;;;;;;;4.63;44.22;93483.00;4942737;29;19966;-65
2024/03/26 07:15:08;;;;;;;;;;;;;;;4.63;42.16;93473.25;4942497;28;19961;-66
2024/03/26 07:17:33;;;;;;;;;;;;;;;4.52;41.23;93476.44;4942461;28;19934;-64
2024/03/26 07:19:58;;;;;;;;;;;;;;;4.50;42.93;93475.81;4942732;28;19946;-65
2024/03/26 07:22:24;;;;;;;;;;;;;;;4.78;42.85;93472.31;4941822;28;19961;-66
2024/03/26 07:24:49;;;;;;;;;;;;;;;4.79;41.90;93468.66;4937883;29;20029;-66
2024/03/26 07:27:14;;;;;;;;;;;;;;;4.70;40.31;93474.09;4941080;28;19927;-65
2024/03/26 07:29:42;;;;;;;;;;;;;;;5.01;44.39;93466.78;4941002;28;19929;-66
2024/03/26 07:32:08;;;;;;;;;;;;;;;5.00;41.00;93470.41;4942738;28;19922;-66
2024/03/26 07:34:34;;;;;;;;;;;;;;;5.09;41.35;93464.00;4941654;28;19949;-65
2024/03/26 07:36:59;;;;;;;;;;;;;;;5.09;42.51;93468.44;4942248;28;20045;-65
2024/03/26 07:39:24;;;;;;;;;;;;;;;5.01;41.31;93461.50;4942250;28;19930;-67
2024/03/26 07:41:50;;;;;;;;;;;;;;;5.31;43.25;93469.13;4938842;28;20021;-65
2024/03/26 07:44:18;;;;;;;;;;;;;;;5.42;40.77;93466.94;4939035;29;19938;-65
2024/03/26 07:46:43;;;;;;;;;;;;;;;5.55;42.41;93463.53;4941690;28;20356;-66
2024/03/26 07:49:08;;;;;;;;;;;;;;;5.55;40.05;93466.97;4940689;28;20025;-66
2024/03/26 07:51:34;;;;;;;;;;;;;;;5.70;40.39;93464.16;4940543;28;19927;-66
2024/03/26 07:53:59;;;;;;;;;;;;;;;5.83;41.47;93458.09;4941555;28;20020;-66
2024/03/26 07:56:24;;;;;;;;;;;;;;;5.85;41.35;93447.34;4941933;28;19927;-67
2024/03/26 07:58:49;;;;;;;;;;;;;;;5.95;40.11;93450.38;4942198;28;20013;-65
2024/03/26 08:01:15;;;;;;;;;;;;;;;5.80;39.11;93452.41;4941679;29;20398;-66
2024/03/26 08:03:40;;;;;;;;;;;;;;;5.85;40.26;93439.41;4940133;28;19931;-66
2024/03/26 08:06:05;;;;;;;;;;;;;;;5.89;38.31;93435.34;4942442;28;19926;-66
2024/03/26 08:08:30;;;;;;;;;;;;;;;5.94;37.67;93430.28;4941446;28;19980;-65
2024/03/26 08:10:56;;;;;;;;;;;;;;;6.15;38.58;93427.63;4941975;28;20466;-65
2024/03/26 08:13:21;;;;;;;;;;;;;;;6.23;40.55;93425.56;4940700;28;20562;-66
2024/03/26 08:15:46;;;;;;;;;;;;;;;6.37;39.78;93418.44;4940125;28;20018;-66
2024/03/26 08:18:11;;;;;;;;;;;;;;;6.58;40.25;93415.81;4941290;28;19926;-67
2024/03/26 08:20:40;;;;;;;;;;;;;;;6.43;38.94;93411.53;4941326;29;20867;-67
2024/03/26 08:23:05;;;;;;;;;;;;;;;6.63;37.71;93414.16;4941222;28;19929;-66
2024/03/26 08:25:30;;;;;;;;;;;;;;;6.68;38.12;93410.91;4940941;28;19926;-66
2024/03/26 08:27:55;;;;;;;;;;;;;;;6.84;38.33;93403.53;4941687;28;20451;-65
2024/03/26 08:30:21;;;;;;;;;;;;;;;7.22;38.93;93412.53;4938738;28;19997;-65
2024/03/26 08:32:46;;;;;;;;;;;;;;;7.38;37.07;93419.19;4938940;29;19923;-66
2024/03/26 08:35:11;;;;;;;;;;;;;;;7.48;37.79;93419.50;4940505;28;20017;-67
2024/03/26 08:37:36;;;;;;;;;;;;;;;7.52;37.78;93420.72;4939230;28;20041;-66
2024/03/26 08:40:02;;;;;;;;;;;;;;;7.39;36.83;93415.50;4940343;28;19919;-64
2024/03/26 08:42:27;;;;;;;;;;;;;;;7.65;38.30;93419.81;4940346;28;20269;-66
2024/03/26 08:44:53;;;;;;;;;;;;;;;7.81;37.66;93422.19;4939906;28;19922;-66
2024/03/26 08:47:18;;;;;;;;;;;;;;;7.77;34.35;93400.63;4940304;28;19934;-65
2024/03/26 08:49:43;;;;;;;;;;;;;;;8.01;36.67;93391.06;4940394;28;20008;-66
2024/03/26 08:52:08;;;;;;;;;;;;;;;8.24;36.86;93407.41;4939814;29;19930;-65
2024/03/26 08:54:34;;;;;;;;;;;;;;;8.34;37.52;93410.38;4939827;28;19931;-66
2024/03/26 08:56:59;;;;;;;;;;;;;;;8.45;36.83;93411.50;4940039;28;20033;-66
2024/03/26 08:59:24;;;;;;;;;;;;;;;8.51;36.77;93397.38;4953785;28;20428;-66
2024/03/26 09:01:50;;;;;;;;;;;;;;;8.57;35.03;93388.50;4937445;28;20012;-65
2024/03/26 09:04:15;;;;;;;;;;;;;;;8.55;34.65;93393.25;4940482;29;19926;-66
2024/03/26 09:06:40;;;;;;;;;;;;;;;8.59;34.09;93392.78;4940620;28;19926;-66
2024/03/26 09:09:05;;;;;;;;;;;;;;;8.85;35.15;93394.34;4941177;28;20592;-65
2024/03/26 09:11:31;;;;;;;;;;;;;;;8.93;35.66;93395.88;4940834;28;20785;-65
2024/03/26 09:13:56;;;;;;;;;;;;;;;9.02;35.59;93393.78;4939869;28;19926;-65
2024/03/26 09:16:21;;;;;;;;;;;;;;;8.99;34.72;93386.25;4940154;28;19931;-65
2024/03/26 09:18:47;;;;;;;;;;;;;;;9.07;35.31;93381.47;4954428;28;20040;-66
2024/03/26 09:21:12;;;;;;;;;;;;;;;9.10;33.77;93372.22;4941085;28;19957;-66
2024/03/26 09:23:37;;;;;;;;;;;;;;;9.12;34.39;93377.31;4940396;28;19931;-66
2024/03/26 09:26:03;;;;;;;;;;;;;;;9.30;34.95;93379.13;4940793;28;20154;-65
2024/03/26 09:28:28;;;;;;;;;;;;;;;9.39;35.25;93369.00;4940082;28;20418;-67
2024/03/26 09:30:53;;;;;;;;;;;;;;;9.56;34.40;93371.84;4940419;28;19926;-66
2024/03/26 09:33:19;;;;;;;;;;;;;;;9.63;34.68;93356.59;4940804;28;19926;-65
2024/03/26 09:35:44;;;;;;;;;;;;;;;9.66;34.21;93355.34;4939611;28;20347;-66
2024/03/26 09:38:09;;;;;;;;;;;;;;;9.87;33.23;93361.16;4940345;28;19957;-65
2024/03/26 09:40:35;;;;;;;;;;;;;;;10.07;34.01;93361.66;4940191;29;19923;-65
2024/03/26 09:43:03;;;;;;;;;;;;;;;10.23;33.27;93369.97;4940501;28;19961;-66
2024/03/26 09:45:30;;;;;;;;;;;;;;;9.96;34.40;93373.06;4939059;28;19933;-65
2024/03/26 09:47:56;;;;;;;;;;;;;;;9.95;34.02;93374.09;4936529;29;20467;-65
2024/03/26 09:50:22;;;;;;;;;;;;;;;9.79;32.65;93378.25;4939546;28;19927;-67
2024/03/26 09:52:48;;;;;;;;;;;;;;;10.02;32.37;93376.63;4939051;28;19930;-65
2024/03/26 09:55:13;;;;;;;;;;;;;;;10.01;33.57;93381.16;4937107;29;19985;-66
2024/03/26 09:57:38;;;;;;;;;;;;;;;9.94;31.14;93377.81;4939637;28;20407;-66
2024/03/26 10:00:04;;;;;;;;;;;;;;;10.00;32.15;93376.06;4935432;28;20017;-65
2024/03/26 10:02:29;;;;;;;;;;;;;;;9.93;33.92;93384.16;4939501;28;19930;-66
2024/03/26 10:04:54;;;;;;;;;;;;;;;9.85;33.32;93370.16;4934977;29;20017;-67
2024/03/26 10:07:19;;;;;;;;;;;;;;;10.00;34.13;93376.91;4938346;28;19934;-65
2024/03/26 10:09:45;;;;;;;;;;;;;;;9.79;32.14;93372.94;4939312;28;19931;-66
2024/03/26 10:12:10;;;;;;;;;;;;;;;9.63;34.43;93382.34;4939998;28;19922;-67
2024/03/26 10:14:35;;;;;;;;;;;;;;;9.46;34.40;93383.00;4938371;28;20013;-65
2024/03/26 10:17:01;;;;;;;;;;;;;;;9.26;31.80;93370.81;4938465;28;19934;-66
2024/03/26 10:19:26;;;;;;;;;;;;;;;9.19;32.84;93372.75;4938580;28;19926;-67
2024/03/26 10:21:52;;;;;;;;;;;;;;;9.29;33.27;93361.59;4954510;28;19982;-65
2024/03/26 10:24:18;;;;;;;;;;;;;;;9.19;32.80;93362.13;4939854;29;20015;-66
2024/03/26 10:26:43;;;;;;;;;;;;;;;9.22;33.02;93361.69;4938292;28;19956;-66
2024/03/26 10:29:08;;;;;;;;;;;;;;;9.26;34.72;93362.84;4938833;28;20366;-65
2024/03/26 10:31:34;;;;;;;;;;;;;;;9.31;35.27;93351.53;4939102;28;20395;-65
2024/03/26 10:33:59;;;;;;;;;;;;;;;9.55;34.96;93354.25;4939366;28;19934;-65
2024/03/26 10:36:24;;;;;;;;;;;;;;;9.52;34.91;93339.59;4938420;28;19932;-65
2024/03/26 10:38:50;;;;;;;;;;;;;;;9.54;35.38;93345.50;4939504;28;19973;-65
2024/03/26 10:41:22;;;;;;;;;;;;;;;10.07;34.08;93332.41;4941837;28;20069;-66
2024/03/26 10:43:48;;;;;;;;;;;;;;;10.34;31.83;93339.91;4941971;28;19922;-66
2024/03/26 10:46:13;;;;;;;;;;;;;;;10.41;30.76;93339.81;4942478;28;19989;-66
2024/03/26 10:48:38;;;;;;;;;;;;;;;10.30;32.72;93333.44;4939761;29;19930;-66
2024/03/26 10:51:03;;;;;;;;;;;;;;;10.23;31.09;93328.25;4931223;29;19981;-65
2024/03/26 10:53:29;;;;;;;;;;;;;;;10.52;30.16;93326.72;4922731;29;19954;-67
2024/03/26 10:55:55;;;;;;;;;;;;;;;10.68;31.58;93328.66;4922874;29;19931;-65
2024/03/26 10:58:20;;;;;;;;;;;;;;;10.60;32.66;93327.19;4931088;28;20405;-66
2024/03/26 11:00:46;;;;;;;;;;;;;;;10.48;31.00;93324.53;4942518;28;19927;-65
2024/03/26 11:03:11;;;;;;;;;;;;;;;10.91;30.28;93326.19;4927438;28;19954;-65
2024/03/26 11:05:39;;;;;;;;;;;;;;;11.19;30.98;93312.09;4921887;28;19970;-65
2024/03/26 11:08:14;;;;;;;;;;;;;;;10.75;29.83;93324.00;4943281;28;19922;-65
2024/03/26 11:10:55;;;;;;;;;;;;;;;11.05;31.10;93318.72;4935733;28;19926;-65
2024/03/26 11:13:23;;;;;;;;;;;;;;;11.35;30.54;93315.84;4922499;29;20005;-65
2024/03/26 11:15:49;;;;;;;;;;;;;;;11.41;29.63;93314.06;4941831;28;20331;-66
2024/03/26 11:18:14;;;;;;;;;;;;;;;11.61;28.55;93310.97;4936339;28;19927;-66
2024/03/26 11:20:39;;;;;;;;;;;;;;;11.75;28.55;93308.78;4924403;29;19926;-65
2024/03/26 11:23:05;;;;;;;;;;;;;;;11.99;29.87;93303.28;4922859;28;20017;-66
2024/03/26 11:25:30;;;;;;;;;;;;;;;12.15;29.49;93308.88;4923329;29;19927;-65
2024/03/26 11:27:58;;;;;;;;;;;;;;;11.87;29.94;93306.03;4922571;28;20161;-66
2024/03/26 11:30:26;;;;;;;;;;;;;;;11.91;29.78;93301.03;4921696;28;20053;-66
2024/03/26 11:32:51;;;;;;;;;;;;;;;12.17;29.41;93311.28;4922680;29;19954;-65
2024/03/26 11:35:17;;;;;;;;;;;;;;;12.47;29.53;93310.09;4922602;29;19977;-66
2024/03/26 11:37:42;;;;;;;;;;;;;;;12.60;29.69;93312.41;4925525;28;20187;-65
2024/03/26 11:40:08;;;;;;;;;;;;;;;12.53;29.15;93312.59;4942326;28;20556;-65
2024/03/26 11:42:33;;;;;;;;;;;;;;;12.76;29.12;93305.41;4934032;28;19927;-65
2024/03/26 11:45:04;;;;;;;;;;;;;;;12.99;28.69;93308.06;4923095;29;19919;-65
2024/03/26 11:47:30;;;;;;;;;;;;;;;13.04;26.91;93302.81;4922097;29;19931;-66
2024/03/26 11:49:55;;;;;;;;;;;;;;;12.60;28.61;93304.41;4919764;29;20439;-66
2024/03/26 11:52:20;;;;;;;;;;;;;;;12.88;26.42;93313.28;4921808;29;20013;-65
2024/03/26 11:54:45;;;;;;;;;;;;;;;12.60;28.30;93309.75;4935081;28;19986;-66
2024/03/26 11:57:11;;;;;;;;;;;;;;;12.32;26.75;93308.03;4956869;28;20283;-66
2024/03/26 11:59:36;;;;;;;;;;;;;;;12.75;26.73;93293.09;4922631;28;19923;-66
2024/03/26 12:02:02;;;;;;;;;;;;;;;13.20;28.76;93287.75;4922182;28;19969;-64
2024/03/26 12:04:27;;;;;;;;;;;;;;;13.31;26.72;93288.66;4922453;28;20580;-64
2024/03/26 12:06:52;;;;;;;;;;;;;;;13.41;28.03;93277.25;4922223;28;20008;-63
2024/03/26 12:09:18;;;;;;;;;;;;;;;13.55;28.28;93278.47;4921850;29;20605;-65
2024/03/26 12:11:43;;;;;;;;;;;;;;;14.12;26.85;93275.44;4936449;28;19989;-65
2024/03/26 12:14:08;;;;;;;;;;;;;;;14.25;27.70;93268.00;4925351;28;19929;-64
2024/03/26 12:16:34;;;;;;;;;;;;;;;14.56;26.65;93265.50;4941901;28;19922;-64
2024/03/26 12:18:59;;;;;;;;;;;;;;;15.02;27.00;93266.75;4929214;28;20019;-63
2024/03/26 12:21:24;;;;;;;;;;;;;;;15.32;25.10;93262.53;4919994;29;19930;-64
2024/03/26 12:23:50;;;;;;;;;;;;;;;15.57;25.76;93263.66;4943494;28;19977;-62
2024/03/26 12:26:15;;;;;;;;;;;;;;;15.20;26.17;93260.91;4935021;28;19962;-65
2024/03/26 12:28:41;;;;;;;;;;;;;;;15.20;25.76;93266.25;4922155;29;20006;-64
2024/03/26 12:31:06;;;;;;;;;;;;;;;15.34;26.30;93263.06;4921986;28;20460;-64
2024/03/26 12:33:31;;;;;;;;;;;;;;;15.05;25.91;93252.81;4922258;29;19977;-63
2024/03/26 12:35:57;;;;;;;;;;;;;;;15.34;26.36;93255.81;4941783;28;20512;-64
2024/03/26 12:38:23;;;;;;;;;;;;;;;15.33;26.40;93242.72;4944127;28;20016;-63
2024/03/26 12:40:49;;;;;;;;;;;;;;;15.69;24.64;93240.06;4941298;28;19927;-64
2024/03/26 12:43:15;;;;;;;;;;;;;;;15.83;24.44;93228.78;4935987;28;19930;-63
2024/03/26 12:45:40;;;;;;;;;;;;;;;15.94;24.18;93235.75;4937302;28;20176;-64